Time;durP1;ratioP1;P1;durP2;ratioP2;P2;SDS_P1;SDS_P2;PMS_P1;PMS_P2;Temp;Humidity;BMP_temperature;BMP_pressure;BME280_temperature;BME280_humidity;BME280_pressure;Samples;Min_cycle;Max_cycle;Signal;HPM_P1;HPM_P2
2022/10/15 00:00:29;;;;;;;;;;;19.70;71.60;;;;;;5033179;27;89881;-65
2022/10/15 00:02:55;;;;;;;;;;;19.70;71.50;;;;;;5033651;27;89659;-67
2022/10/15 00:05:20;;;;;;;;;;;19.70;71.50;;;;;;5038522;27;90258;-67
2022/10/15 00:07:46;;;;;;;;;;;19.70;71.50;;;;;;5039898;27;89915;-65
2022/10/15 00:10:12;;;;;;;;;;;19.70;71.40;;;;;;5022575;27;91898;-63
2022/10/15 00:12:37;;;;;;;;;;;19.70;71.40;;;;;;5038123;27;93876;-63
2022/10/15 00:15:04;;;;;;;;;;;19.60;71.40;;;;;;5041019;27;89543;-60
2022/10/15 00:17:30;;;;;;;;;;;19.70;71.40;;;;;;5042375;27;90291;-65
2022/10/15 00:19:55;;;;;;;;;;;19.70;71.30;;;;;;5022542;27;92796;-68
2022/10/15 00:22:21;;;;;;;;;;;19.70;71.30;;;;;;5036601;27;90862;-67
2022/10/15 00:24:46;;;;;;;;;;;19.70;71.30;;;;;;5039969;27;90605;-67
2022/10/15 00:27:12;;;;;;;;;;;19.60;71.20;;;;;;5031573;27;88734;-66
2022/10/15 00:29:37;;;;;;;;;;;19.60;71.20;;;;;;5017647;27;94220;-67
2022/10/15 00:32:03;;;;;;;;;;;19.70;71.30;;;;;;5045774;27;89904;-67
2022/10/15 00:34:29;;;;;;;;;;;19.60;71.20;;;;;;5048900;27;89732;-66
2022/10/15 00:36:54;;;;;;;;;;;19.60;71.10;;;;;;5051054;27;89297;-67
2022/10/15 00:39:20;;;;;;;;;;;19.70;71.20;;;;;;5041359;27;89541;-67
2022/10/15 00:41:46;;;;;;;;;;;19.70;71.20;;;;;;5037785;27;90391;-66
2022/10/15 00:44:20;;;;;;;;;;;19.60;71.90;;;;;;5057497;27;89486;-66
2022/10/15 00:46:53;;;;;;;;;;;19.70;71.20;;;;;;5050314;27;92330;-65
2022/10/15 00:49:22;;;;;;;;;;;19.60;71.10;;;;;;5039929;27;91942;-66
2022/10/15 00:51:51;;;;;;;;;;;19.70;71.10;;;;;;5047440;27;89474;-66
2022/10/15 00:54:18;;;;;;;;;;;19.60;71.10;;;;;;5047300;27;89400;-61
2022/10/15 00:56:44;;;;;;;;;;;19.60;71.40;;;;;;5043199;27;89451;-66
2022/10/15 00:59:11;;;;;;;;;;;19.60;71.00;;;;;;5043454;27;95521;-66
2022/10/15 01:01:37;;;;;;;;;;;19.60;71.10;;;;;;5044318;27;90235;-66
2022/10/15 01:04:03;;;;;;;;;;;19.60;71.10;;;;;;5054069;27;90224;-67
2022/10/15 01:06:29;;;;;;;;;;;19.60;71.10;;;;;;5048153;27;89952;-65
2022/10/15 01:08:55;;;;;;;;;;;19.60;71.00;;;;;;5034467;27;90810;-67
2022/10/15 01:11:39;;;;;;;;;;;19.60;71.00;;;;;;5041959;27;89536;-68
2022/10/15 01:14:11;;;;;;;;;;;19.60;70.90;;;;;;5044715;27;89722;-61
2022/10/15 01:16:59;;;;;;;;;;;19.60;70.90;;;;;;5047734;27;90080;-67
2022/10/15 01:19:43;;;;;;;;;;;19.60;70.90;;;;;;5042225;27;89330;-68
2022/10/15 01:22:14;;;;;;;;;;;19.60;70.90;;;;;;5042198;27;90094;-64
2022/10/15 01:24:42;;;;;;;;;;;19.60;70.90;;;;;;5046252;27;90435;-66
2022/10/15 01:27:34;;;;;;;;;;;19.60;70.80;;;;;;5042543;27;90562;-67
2022/10/15 01:30:19;;;;;;;;;;;19.60;70.80;;;;;;5037170;27;90791;-66
2022/10/15 01:32:50;;;;;;;;;;;19.60;70.80;;;;;;5033317;27;90679;-67
2022/10/15 01:35:18;;;;;;;;;;;19.60;70.80;;;;;;5039654;27;90935;-59
2022/10/15 01:38:07;;;;;;;;;;;19.60;70.80;;;;;;5046265;27;89817;-67
2022/10/15 01:40:36;;;;;;;;;;;19.60;71.50;;;;;;5045923;27;89783;-67
2022/10/15 01:43:08;;;;;;;;;;;19.60;70.90;;;;;;5048192;27;90075;-66
2022/10/15 01:45:43;;;;;;;;;;;19.50;70.60;;;;;;5046805;27;89606;-66
2022/10/15 01:48:10;;;;;;;;;;;19.60;70.70;;;;;;5033629;27;88787;-68
2022/10/15 01:50:37;;;;;;;;;;;19.60;70.60;;;;;;5037109;27;96954;-62
2022/10/15 01:53:04;;;;;;;;;;;19.60;70.60;;;;;;5045413;27;90313;-67
2022/10/15 01:55:31;;;;;;;;;;;19.60;70.70;;;;;;5041665;27;89521;-68
2022/10/15 01:57:57;;;;;;;;;;;19.60;70.70;;;;;;5026758;27;91694;-66
2022/10/15 02:00:23;;;;;;;;;;;19.60;70.60;;;;;;5042298;27;89688;-66
2022/10/15 02:02:49;;;;;;;;;;;19.60;70.60;;;;;;5042700;27;89799;-66
2022/10/15 02:05:16;;;;;;;;;;;19.60;70.50;;;;;;5028691;27;95637;-68
2022/10/15 02:08:14;;;;;;;;;;;19.60;70.50;;;;;;5047863;27;88694;-65
2022/10/15 02:10:59;;;;;;;;;;;19.60;70.50;;;;;;4985572;27;89443;-64
2022/10/15 02:13:35;;;;;;;;;;;19.50;70.40;;;;;;5047213;27;90485;-67
2022/10/15 02:16:22;;;;;;;;;;;19.60;71.20;;;;;;5039935;27;90500;-61
2022/10/15 02:19:23;;;;;;;;;;;19.60;70.40;;;;;;5042254;27;90180;-60
2022/10/15 02:22:02;;;;;;;;;;;19.50;70.30;;;;;;4982036;28;89971;-67
2022/10/15 02:24:32;;;;;;;;;;;19.50;70.40;;;;;;5038224;27;89739;-60
2022/10/15 02:26:58;;;;;;;;;;;19.50;70.40;;;;;;5043331;27;89168;-67
2022/10/15 02:29:26;;;;;;;;;;;19.50;70.30;;;;;;5032881;27;91214;-65
2022/10/15 02:31:52;;;;;;;;;;;19.50;70.30;;;;;;5041170;27;89479;-68
2022/10/15 02:34:19;;;;;;;;;;;19.50;70.30;;;;;;5044727;27;90314;-68
2022/10/15 02:36:45;;;;;;;;;;;19.50;70.30;;;;;;5038526;27;89621;-66
2022/10/15 02:39:13;;;;;;;;;;;19.50;70.30;;;;;;5042003;27;91403;-62
2022/10/15 02:41:39;;;;;;;;;;;19.50;70.30;;;;;;5032073;27;90674;-65
2022/10/15 02:44:05;;;;;;;;;;;19.50;70.30;;;;;;5044389;27;92435;-67
2022/10/15 02:46:30;;;;;;;;;;;19.50;70.20;;;;;;5017830;27;90930;-68
2022/10/15 02:48:56;;;;;;;;;;;19.50;70.20;;;;;;5036444;27;91094;-68
2022/10/15 02:51:21;;;;;;;;;;;19.50;71.00;;;;;;5023545;27;90599;-68
2022/10/15 02:53:47;;;;;;;;;;;19.50;70.20;;;;;;5029564;27;90914;-66
2022/10/15 02:56:12;;;;;;;;;;;19.50;70.10;;;;;;5042257;27;89907;-67
2022/10/15 02:58:38;;;;;;;;;;;19.50;70.20;;;;;;5047889;27;88452;-68
2022/10/15 03:01:04;;;;;;;;;;;19.50;70.30;;;;;;5042659;27;90444;-66
2022/10/15 03:03:29;;;;;;;;;;;19.50;70.20;;;;;;5026750;27;93150;-68
2022/10/15 03:05:55;;;;;;;;;;;19.50;70.60;;;;;;5034012;27;90022;-68
2022/10/15 03:08:20;;;;;;;;;;;19.50;70.10;;;;;;5044538;27;89371;-67
2022/10/15 03:10:46;;;;;;;;;;;19.50;70.20;;;;;;5035896;27;89435;-68
2022/10/15 03:13:11;;;;;;;;;;;19.50;70.10;;;;;;5051368;27;90475;-68
2022/10/15 03:15:37;;;;;;;;;;;19.50;70.00;;;;;;5047015;27;89547;-61
2022/10/15 03:18:03;;;;;;;;;;;19.50;70.10;;;;;;5037594;27;89948;-68
2022/10/15 03:20:28;;;;;;;;;;;19.40;70.00;;;;;;5035640;27;90363;-68
2022/10/15 03:22:54;;;;;;;;;;;19.40;70.00;;;;;;5043708;27;90140;-68
2022/10/15 03:25:19;;;;;;;;;;;19.40;70.00;;;;;;5061385;27;89449;-67
2022/10/15 03:27:45;;;;;;;;;;;19.40;70.00;;;;;;5043886;27;89543;-68
2022/10/15 03:30:10;;;;;;;;;;;19.50;70.10;;;;;;5042136;27;92004;-66
2022/10/15 03:32:36;;;;;;;;;;;19.50;70.00;;;;;;5028258;27;89793;-68
2022/10/15 03:35:02;;;;;;;;;;;19.40;69.90;;;;;;5046247;27;89908;-68
2022/10/15 03:37:27;;;;;;;;;;;19.40;69.90;;;;;;5050747;27;90804;-65
2022/10/15 03:39:53;;;;;;;;;;;19.40;69.90;;;;;;5045756;27;89954;-68
2022/10/15 03:42:18;;;;;;;;;;;19.40;69.90;;;;;;5044441;27;96476;-69
2022/10/15 03:44:44;;;;;;;;;;;19.40;69.80;;;;;;5050563;27;89887;-67
2022/10/15 03:47:09;;;;;;;;;;;19.40;69.80;;;;;;5034445;27;89993;-65
2022/10/15 03:49:35;;;;;;;;;;;19.40;70.00;;;;;;5038317;27;89923;-66
2022/10/15 03:52:00;;;;;;;;;;;19.40;69.90;;;;;;5024899;27;89558;-68
2022/10/15 03:54:26;;;;;;;;;;;19.40;69.90;;;;;;5043795;27;90728;-67
2022/10/15 03:56:51;;;;;;;;;;;19.40;69.80;;;;;;5048312;27;89854;-68
2022/10/15 03:59:17;;;;;;;;;;;19.40;69.90;;;;;;5047413;27;89456;-67
2022/10/15 04:01:43;;;;;;;;;;;19.40;69.80;;;;;;5032845;27;89889;-67
2022/10/15 04:04:11;;;;;;;;;;;19.50;69.90;;;;;;5043286;27;89895;-67
2022/10/15 04:06:37;;;;;;;;;;;19.40;69.90;;;;;;5045537;27;90702;-67
2022/10/15 04:09:03;;;;;;;;;;;19.40;69.80;;;;;;5042737;27;90337;-67
2022/10/15 04:11:28;;;;;;;;;;;19.40;69.80;;;;;;5028243;27;89773;-65
2022/10/15 04:13:54;;;;;;;;;;;19.40;69.80;;;;;;5038775;27;89955;-64
2022/10/15 04:16:19;;;;;;;;;;;19.40;69.80;;;;;;5036778;27;89532;-66
2022/10/15 04:18:45;;;;;;;;;;;19.40;69.80;;;;;;5033134;27;91063;-67
2022/10/15 04:21:10;;;;;;;;;;;19.40;69.80;;;;;;5043733;27;90686;-66
2022/10/15 04:23:36;;;;;;;;;;;19.40;69.80;;;;;;5038565;27;89463;-67
2022/10/15 04:26:02;;;;;;;;;;;19.40;69.70;;;;;;5045870;27;89611;-66
2022/10/15 04:28:28;;;;;;;;;;;19.40;69.80;;;;;;5047095;27;95878;-62
2022/10/15 04:30:57;;;;;;;;;;;19.40;69.80;;;;;;5052320;27;89781;-66
2022/10/15 04:33:22;;;;;;;;;;;19.40;69.70;;;;;;5038030;27;90496;-66
2022/10/15 04:35:56;;;;;;;;;;;19.40;69.70;;;;;;5042134;27;94756;-66
2022/10/15 04:38:22;;;;;;;;;;;19.40;69.80;;;;;;5030718;27;89580;-67
2022/10/15 04:40:47;;;;;;;;;;;19.40;69.80;;;;;;5045271;27;89867;-66
2022/10/15 04:43:12;;;;;;;;;;;19.40;69.80;;;;;;5050253;27;92114;-67
2022/10/15 04:45:38;;;;;;;;;;;19.30;69.80;;;;;;5029285;27;89478;-63
2022/10/15 04:48:04;;;;;;;;;;;19.40;69.80;;;;;;5039605;27;90089;-66
2022/10/15 04:50:29;;;;;;;;;;;19.40;69.70;;;;;;5045058;27;89807;-66
2022/10/15 04:52:55;;;;;;;;;;;19.40;69.80;;;;;;5043870;27;90594;-67
2022/10/15 04:55:20;;;;;;;;;;;19.40;69.80;;;;;;5047736;27;90047;-67
2022/10/15 04:57:46;;;;;;;;;;;19.40;69.80;;;;;;5033256;27;89270;-65
2022/10/15 05:00:11;;;;;;;;;;;19.30;69.70;;;;;;5052623;27;89899;-65
2022/10/15 05:02:40;;;;;;;;;;;19.30;69.70;;;;;;5035373;27;89102;-67
2022/10/15 05:05:06;;;;;;;;;;;19.30;69.70;;;;;;5040533;27;91773;-61
2022/10/15 05:07:31;;;;;;;;;;;19.30;69.70;;;;;;5044106;27;94071;-58
2022/10/15 05:09:57;;;;;;;;;;;19.30;69.70;;;;;;5027036;27;91596;-61
2022/10/15 05:12:22;;;;;;;;;;;19.30;69.70;;;;;;5036144;27;89936;-64
2022/10/15 05:14:48;;;;;;;;;;;19.30;69.70;;;;;;5046267;27;94856;-67
2022/10/15 05:17:13;;;;;;;;;;;19.30;69.70;;;;;;5043191;27;90970;-65
2022/10/15 05:19:39;;;;;;;;;;;19.30;69.60;;;;;;5041507;27;89668;-64
2022/10/15 05:22:04;;;;;;;;;;;19.30;69.60;;;;;;5041646;27;89200;-64
2022/10/15 05:24:30;;;;;;;;;;;19.30;69.70;;;;;;5044634;27;89068;-67
2022/10/15 05:26:55;;;;;;;;;;;19.30;69.70;;;;;;5047799;27;90696;-68
2022/10/15 05:29:21;;;;;;;;;;;19.30;69.70;;;;;;5039044;27;91512;-67
2022/10/15 05:31:48;;;;;;;;;;;19.30;69.70;;;;;;5031682;27;90529;-65
2022/10/15 05:34:14;;;;;;;;;;;19.30;69.80;;;;;;5043036;27;91107;-63
2022/10/15 05:36:39;;;;;;;;;;;19.30;69.70;;;;;;5034991;27;89985;-66
2022/10/15 05:39:09;;;;;;;;;;;19.30;69.70;;;;;;5034474;27;90074;-67
2022/10/15 05:41:35;;;;;;;;;;;19.30;69.70;;;;;;5037547;27;90290;-67
2022/10/15 05:44:01;;;;;;;;;;;19.30;69.70;;;;;;5029163;27;89400;-67
2022/10/15 05:46:26;;;;;;;;;;;19.40;69.70;;;;;;5037314;27;89868;-68
2022/10/15 05:48:55;;;;;;;;;;;19.30;69.60;;;;;;5014345;27;89827;-64
2022/10/15 05:51:21;;;;;;;;;;;19.30;69.70;;;;;;5046937;27;90046;-65
2022/10/15 05:53:50;;;;;;;;;;;19.30;69.60;;;;;;5050868;27;89970;-68
2022/10/15 05:56:16;;;;;;;;;;;19.30;69.60;;;;;;5037975;27;90467;-67
2022/10/15 05:58:41;;;;;;;;;;;19.40;69.70;;;;;;5041201;27;94823;-64
2022/10/15 06:01:08;;;;;;;;;;;19.30;69.80;;;;;;5045148;27;89280;-61
2022/10/15 06:03:34;;;;;;;;;;;19.30;69.90;;;;;;5037230;27;90116;-62
2022/10/15 06:05:59;;;;;;;;;;;19.30;69.80;;;;;;5031682;27;90213;-67
2022/10/15 06:08:26;;;;;;;;;;;19.30;69.90;;;;;;5016164;27;89685;-68
2022/10/15 06:10:51;;;;;;;;;;;19.30;70.00;;;;;;5039175;27;89648;-60
2022/10/15 06:13:17;;;;;;;;;;;19.30;69.90;;;;;;5022542;27;89117;-66
2022/10/15 06:15:44;;;;;;;;;;;19.30;70.00;;;;;;5031234;27;90613;-65
2022/10/15 06:18:11;;;;;;;;;;;19.30;70.00;;;;;;5031456;27;89944;-62
2022/10/15 06:20:37;;;;;;;;;;;19.40;70.00;;;;;;5039111;27;90841;-66
2022/10/15 06:23:03;;;;;;;;;;;19.40;69.90;;;;;;5035440;27;89920;-68
2022/10/15 06:25:29;;;;;;;;;;;19.40;70.00;;;;;;5033081;27;91281;-66
2022/10/15 06:27:54;;;;;;;;;;;19.40;69.90;;;;;;5035100;27;89216;-64
2022/10/15 06:30:20;;;;;;;;;;;19.40;70.00;;;;;;4976346;27;837381;-67
2022/10/15 06:32:46;;;;;;;;;;;19.40;70.00;;;;;;5026045;27;88774;-67
2022/10/15 06:35:12;;;;;;;;;;;19.40;70.10;;;;;;5016125;27;93373;-66
2022/10/15 06:37:37;;;;;;;;;;;19.40;70.00;;;;;;5046674;27;88890;-59
2022/10/15 06:40:03;;;;;;;;;;;19.40;70.20;;;;;;5030861;27;89729;-64
2022/10/15 06:42:28;;;;;;;;;;;19.40;70.30;;;;;;5037909;27;91457;-66
2022/10/15 06:44:54;;;;;;;;;;;19.40;70.20;;;;;;5034959;27;91812;-58
2022/10/15 06:47:19;;;;;;;;;;;19.40;70.30;;;;;;5044068;27;90713;-66
2022/10/15 06:49:45;;;;;;;;;;;19.40;70.30;;;;;;5031526;27;90475;-67
2022/10/15 06:52:11;;;;;;;;;;;19.40;70.30;;;;;;5026322;27;89147;-67
2022/10/15 06:54:36;;;;;;;;;;;19.30;70.30;;;;;;5048284;27;89430;-69
2022/10/15 06:57:02;;;;;;;;;;;19.30;70.50;;;;;;5048582;27;89620;-68
2022/10/15 06:59:27;;;;;;;;;;;19.40;70.60;;;;;;5037382;27;89932;-66
2022/10/15 07:01:53;;;;;;;;;;;19.30;70.60;;;;;;5044382;27;88821;-64
2022/10/15 07:04:18;;;;;;;;;;;19.30;70.80;;;;;;5044758;27;92319;-61
2022/10/15 07:06:44;;;;;;;;;;;19.40;70.90;;;;;;5049911;27;89846;-68
2022/10/15 07:09:09;;;;;;;;;;;19.40;71.00;;;;;;5040656;27;91380;-68
2022/10/15 07:11:35;;;;;;;;;;;19.40;71.00;;;;;;5036615;27;89508;-68
2022/10/15 07:14:01;;;;;;;;;;;19.40;71.20;;;;;;5046727;27;89823;-62
2022/10/15 07:16:26;;;;;;;;;;;19.40;71.20;;;;;;5020014;27;91145;-67
2022/10/15 07:18:52;;;;;;;;;;;19.40;71.20;;;;;;5056314;27;90416;-67
2022/10/15 07:21:18;;;;;;;;;;;19.40;71.20;;;;;;5035267;27;89234;-66
2022/10/15 07:23:43;;;;;;;;;;;19.40;71.40;;;;;;5048857;27;91660;-68
2022/10/15 07:26:09;;;;;;;;;;;19.40;71.50;;;;;;5047498;27;91318;-67
2022/10/15 07:28:34;;;;;;;;;;;19.40;72.20;;;;;;5029481;27;89472;-64
2022/10/15 07:31:04;;;;;;;;;;;19.40;71.50;;;;;;5030393;27;89943;-68
2022/10/15 07:33:30;;;;;;;;;;;19.40;71.70;;;;;;5027058;27;90517;-68
2022/10/15 07:35:56;;;;;;;;;;;19.40;71.80;;;;;;5038109;27;91024;-68
2022/10/15 07:38:21;;;;;;;;;;;19.40;72.10;;;;;;5045920;27;90590;-67
2022/10/15 07:40:47;;;;;;;;;;;19.40;72.20;;;;;;5050966;27;90754;-68
2022/10/15 07:43:12;;;;;;;;;;;19.40;72.10;;;;;;5039661;27;89567;-63
2022/10/15 07:45:38;;;;;;;;;;;19.40;72.20;;;;;;5029155;27;90814;-68
2022/10/15 07:48:04;;;;;;;;;;;19.40;72.50;;;;;;5035023;27;90087;-59
2022/10/15 07:50:30;;;;;;;;;;;19.40;72.70;;;;;;5042274;27;89874;-66
2022/10/15 07:52:55;;;;;;;;;;;19.40;72.60;;;;;;5048380;27;89800;-67
2022/10/15 07:55:21;;;;;;;;;;;19.40;72.80;;;;;;5040473;27;89939;-65
2022/10/15 07:57:46;;;;;;;;;;;19.40;73.40;;;;;;5037112;27;90135;-67
2022/10/15 08:00:12;;;;;;;;;;;19.30;73.50;;;;;;5020601;27;90026;-68
2022/10/15 08:02:38;;;;;;;;;;;19.40;73.60;;;;;;5042214;27;90050;-66
2022/10/15 08:05:03;;;;;;;;;;;19.40;73.70;;;;;;5033682;27;89936;-67
2022/10/15 08:07:29;;;;;;;;;;;19.40;73.60;;;;;;5031351;27;89912;-66
2022/10/15 08:09:54;;;;;;;;;;;19.40;73.60;;;;;;5018011;27;89636;-62
2022/10/15 08:12:20;;;;;;;;;;;19.40;73.50;;;;;;5038608;27;89949;-67
2022/10/15 08:14:45;;;;;;;;;;;19.40;73.50;;;;;;5039016;27;92930;-67
2022/10/15 08:17:11;;;;;;;;;;;19.40;73.40;;;;;;5043752;27;89532;-63
2022/10/15 08:19:36;;;;;;;;;;;19.40;73.20;;;;;;5034167;27;89276;-65
2022/10/15 08:22:02;;;;;;;;;;;19.40;73.10;;;;;;5041890;27;91416;-70
2022/10/15 08:24:29;;;;;;;;;;;19.40;73.00;;;;;;5042151;27;89669;-60
2022/10/15 08:26:56;;;;;;;;;;;19.40;73.00;;;;;;5036012;27;90042;-70
2022/10/15 08:29:21;;;;;;;;;;;19.40;72.80;;;;;;5030161;27;89473;-64
2022/10/15 08:31:48;;;;;;;;;;;19.40;73.00;;;;;;5043371;27;89207;-65
2022/10/15 08:34:13;;;;;;;;;;;19.40;72.80;;;;;;5032123;27;89195;-68
2022/10/15 08:36:39;;;;;;;;;;;19.50;72.60;;;;;;5040958;27;92127;-63
2022/10/15 08:39:06;;;;;;;;;;;19.50;72.70;;;;;;5038913;27;88379;-68
2022/10/15 08:41:42;;;;;;;;;;;19.50;72.90;;;;;;5036937;27;91505;-69
2022/10/15 08:44:23;;;;;;;;;;;19.40;73.10;;;;;;5048539;27;89508;-70
2022/10/15 08:46:51;;;;;;;;;;;19.50;73.50;;;;;;5041448;27;91755;-61
2022/10/15 08:49:42;;;;;;;;;;;19.50;74.00;;;;;;5032642;27;89261;-67
2022/10/15 08:52:24;;;;;;;;;;;19.40;74.30;;;;;;5025477;27;89717;-67
2022/10/15 08:54:50;;;;;;;;;;;19.40;74.60;;;;;;5037217;27;90829;-67
2022/10/15 08:57:26;;;;;;;;;;;19.50;75.00;;;;;;5039202;27;89956;-68
2022/10/15 09:00:01;;;;;;;;;;;19.50;75.20;;;;;;5015083;27;89311;-64
2022/10/15 09:02:34;;;;;;;;;;;19.50;75.00;;;;;;5009937;27;91339;-62
2022/10/15 09:05:18;;;;;;;;;;;19.50;75.30;;;;;;5036510;27;90153;-59
2022/10/15 09:07:46;;;;;;;;;;;19.60;77.30;;;;;;5021922;27;90038;-63
2022/10/15 09:10:17;;;;;;;;;;;19.60;77.80;;;;;;5043814;27;89549;-64
2022/10/15 09:12:54;;;;;;;;;;;19.70;77.80;;;;;;5042688;27;91222;-66
2022/10/15 09:15:20;;;;;;;;;;;19.70;78.50;;;;;;5008643;27;89609;-67
2022/10/15 09:17:48;;;;;;;;;;;19.70;78.30;;;;;;5041011;27;90769;-62
2022/10/15 09:20:24;;;;;;;;;;;19.70;79.50;;;;;;5046756;27;89825;-62
2022/10/15 09:22:50;;;;;;;;;;;19.70;79.50;;;;;;5045435;27;91141;-63
2022/10/15 09:25:17;;;;;;;;;;;19.70;80.00;;;;;;5041931;27;90338;-65
2022/10/15 09:27:44;;;;;;;;;;;19.70;80.20;;;;;;5048821;27;95913;-65
2022/10/15 09:30:25;;;;;;;;;;;19.80;80.20;;;;;;5031055;27;89649;-67
2022/10/15 09:33:00;;;;;;;;;;;19.80;80.70;;;;;;5026262;27;90093;-63
2022/10/15 09:35:33;;;;;;;;;;;19.80;81.60;;;;;;5040624;27;90579;-65
2022/10/15 09:38:12;;;;;;;;;;;19.80;81.40;;;;;;5046310;27;91261;-66
2022/10/15 09:40:52;;;;;;;;;;;19.80;81.50;;;;;;5051954;27;89788;-70
2022/10/15 09:43:26;;;;;;;;;;;19.80;81.40;;;;;;5035998;27;89777;-68
2022/10/15 09:45:52;;;;;;;;;;;19.80;80.90;;;;;;5048170;27;90233;-67
2022/10/15 09:48:18;;;;;;;;;;;19.80;80.80;;;;;;5036777;27;90386;-67
2022/10/15 09:50:54;;;;;;;;;;;19.80;80.70;;;;;;5047855;27;90754;-68
2022/10/15 09:53:40;;;;;;;;;;;19.80;80.60;;;;;;5037542;27;90678;-69
2022/10/15 09:56:18;;;;;;;;;;;19.80;80.60;;;;;;5036254;27;89915;-67
2022/10/15 09:58:50;;;;;;;;;;;19.80;80.70;;;;;;5048669;27;89861;-69
2022/10/15 10:01:23;;;;;;;;;;;19.80;80.80;;;;;;5030058;27;89974;-68
2022/10/15 10:03:53;;;;;;;;;;;19.80;80.70;;;;;;5036805;27;91143;-66
2022/10/15 10:06:19;;;;;;;;;;;19.80;80.50;;;;;;5062835;27;89788;-68
2022/10/15 10:08:45;;;;;;;;;;;19.80;80.50;;;;;;5051509;27;89602;-68
2022/10/15 10:11:11;;;;;;;;;;;19.80;80.60;;;;;;5040118;27;89300;-70
2022/10/15 10:13:37;;;;;;;;;;;19.80;80.50;;;;;;5050698;27;90589;-69
2022/10/15 10:16:04;;;;;;;;;;;19.80;81.50;;;;;;5029201;27;93447;-67
2022/10/15 10:18:31;;;;;;;;;;;19.90;80.90;;;;;;5039830;27;89997;-69
2022/10/15 10:21:19;;;;;;;;;;;19.90;81.30;;;;;;5037409;27;88785;-69
2022/10/15 10:23:44;;;;;;;;;;;19.90;82.20;;;;;;5036533;27;91156;-63
2022/10/15 10:26:10;;;;;;;;;;;20.00;82.70;;;;;;5034200;27;89689;-60
2022/10/15 10:28:39;;;;;;;;;;;20.00;84.60;;;;;;5035938;27;90584;-68
2022/10/15 10:31:06;;;;;;;;;;;20.00;84.80;;;;;;5040029;27;93599;-67
2022/10/15 10:33:40;;;;;;;;;;;20.00;85.60;;;;;;5039097;27;93184;-68
2022/10/15 10:36:07;;;;;;;;;;;20.00;85.80;;;;;;5038396;27;90204;-68
2022/10/15 10:38:33;;;;;;;;;;;19.90;85.10;;;;;;5039510;27;95707;-60
2022/10/15 10:41:08;;;;;;;;;;;20.00;86.20;;;;;;5042976;27;91591;-60
2022/10/15 10:43:35;;;;;;;;;;;19.90;85.60;;;;;;5044746;27;90023;-68
2022/10/15 10:46:20;;;;;;;;;;;20.00;86.70;;;;;;5031118;27;90552;-70
2022/10/15 10:48:48;;;;;;;;;;;20.00;86.00;;;;;;5036519;27;90152;-70
2022/10/15 10:51:15;;;;;;;;;;;20.00;86.80;;;;;;5039623;27;96770;-70
2022/10/15 10:53:46;;;;;;;;;;;20.00;87.00;;;;;;5038895;27;92437;-65
2022/10/15 10:56:14;;;;;;;;;;;20.00;88.00;;;;;;5040323;27;90459;-63
2022/10/15 10:58:40;;;;;;;;;;;20.00;86.80;;;;;;5039046;27;89938;-70
2022/10/15 11:01:05;;;;;;;;;;;19.90;86.80;;;;;;5023195;27;90046;-62
2022/10/15 11:03:38;;;;;;;;;;;20.00;85.40;;;;;;5043392;27;95243;-71
2022/10/15 11:06:15;;;;;;;;;;;20.00;84.70;;;;;;5040214;27;89792;-66
2022/10/15 11:08:41;;;;;;;;;;;20.00;84.30;;;;;;5033945;27;90000;-66
2022/10/15 11:11:07;;;;;;;;;;;20.00;84.30;;;;;;5040944;27;90577;-72
2022/10/15 11:13:32;;;;;;;;;;;20.00;83.80;;;;;;5036387;27;90032;-65
2022/10/15 11:16:00;;;;;;;;;;;19.90;83.20;;;;;;5039396;27;90342;-67
2022/10/15 11:18:44;;;;;;;;;;;19.90;83.00;;;;;;5039362;27;90652;-68
2022/10/15 11:21:16;;;;;;;;;;;19.90;82.30;;;;;;5028402;27;91182;-70
2022/10/15 11:23:42;;;;;;;;;;;20.00;81.80;;;;;;5036866;27;91048;-69
2022/10/15 11:26:16;;;;;;;;;;;20.00;81.80;;;;;;5037604;27;90006;-59
2022/10/15 11:28:41;;;;;;;;;;;19.90;81.70;;;;;;5033934;27;92287;-65
2022/10/15 11:31:13;;;;;;;;;;;19.90;81.40;;;;;;5029537;27;90489;-70
2022/10/15 11:33:53;;;;;;;;;;;19.90;81.10;;;;;;5039609;27;93493;-71
2022/10/15 11:36:40;;;;;;;;;;;20.00;81.10;;;;;;5038844;27;89232;-71
2022/10/15 11:39:05;;;;;;;;;;;19.90;80.50;;;;;;5039104;27;90021;-55
2022/10/15 11:41:33;;;;;;;;;;;19.90;80.40;;;;;;5051292;27;89725;-54
2022/10/15 11:44:14;;;;;;;;;;;19.90;80.20;;;;;;5036039;27;91557;-57
2022/10/15 11:46:58;;;;;;;;;;;20.00;80.10;;;;;;5048212;27;90496;-56
2022/10/15 11:49:24;;;;;;;;;;;19.90;80.00;;;;;;5033990;27;90278;-57
2022/10/15 11:51:52;;;;;;;;;;;20.00;79.90;;;;;;5037417;27;92528;-55
2022/10/15 11:54:29;;;;;;;;;;;20.00;79.80;;;;;;5038565;27;90592;-54
2022/10/15 11:56:56;;;;;;;;;;;20.00;80.10;;;;;;5043178;27;90241;-55
2022/10/15 11:59:41;;;;;;;;;;;20.00;79.70;;;;;;5050244;27;89927;-54
2022/10/15 12:02:15;;;;;;;;;;;20.00;79.30;;;;;;5042144;27;89335;-55
2022/10/15 12:04:43;;;;;;;;;;;20.00;79.40;;;;;;5027903;27;90168;-55
2022/10/15 12:07:17;;;;;;;;;;;20.00;79.80;;;;;;5024272;27;90449;-56
2022/10/15 12:09:45;;;;;;;;;;;20.10;80.80;;;;;;5040452;27;90975;-56
2022/10/15 12:12:29;;;;;;;;;;;20.10;81.00;;;;;;5037814;27;89771;-54
2022/10/15 12:15:21;;;;;;;;;;;20.10;81.70;;;;;;5021643;27;96388;-56
2022/10/15 12:18:22;;;;;;;;;;;20.10;81.80;;;;;;5033755;27;89990;-56
2022/10/15 12:20:48;;;;;;;;;;;20.10;81.30;;;;;;4974294;28;90633;-56
2022/10/15 12:23:32;;;;;;;;;;;20.10;79.90;;;;;;5025241;27;90130;-56
2022/10/15 12:25:58;;;;;;;;;;;20.20;79.50;;;;;;5035366;27;92093;-54
2022/10/15 12:28:26;;;;;;;;;;;20.20;79.00;;;;;;5024975;27;89490;-54
2022/10/15 12:30:58;;;;;;;;;;;20.20;78.70;;;;;;5043876;27;89812;-55
2022/10/15 12:33:34;;;;;;;;;;;20.30;78.50;;;;;;5045342;27;91570;-55
2022/10/15 12:36:01;;;;;;;;;;;20.20;78.20;;;;;;5036368;27;92593;-54
2022/10/15 12:38:29;;;;;;;;;;;20.30;78.00;;;;;;5026519;27;91427;-55
2022/10/15 12:40:58;;;;;;;;;;;20.30;77.80;;;;;;5027880;27;90723;-56
2022/10/15 12:43:24;;;;;;;;;;;20.30;77.60;;;;;;5037814;27;90013;-53
2022/10/15 12:45:52;;;;;;;;;;;20.30;77.60;;;;;;5044932;27;89833;-57
2022/10/15 12:48:19;;;;;;;;;;;20.30;77.30;;;;;;5038662;27;90899;-54
2022/10/15 12:50:45;;;;;;;;;;;20.40;77.10;;;;;;5028113;27;90279;-55
2022/10/15 12:53:27;;;;;;;;;;;20.40;76.90;;;;;;5021882;27;89534;-59
2022/10/15 12:56:08;;;;;;;;;;;20.40;76.80;;;;;;5045694;27;90546;-56
2022/10/15 12:58:34;;;;;;;;;;;20.40;76.70;;;;;;5032926;27;90089;-58
2022/10/15 13:01:25;;;;;;;;;;;20.30;76.40;;;;;;5010813;27;91088;-57
2022/10/15 13:03:52;;;;;;;;;;;20.40;76.20;;;;;;5030227;27;89721;-54
2022/10/15 13:06:24;;;;;;;;;;;20.40;76.10;;;;;;5034863;27;90299;-54
2022/10/15 13:09:13;;;;;;;;;;;20.40;76.00;;;;;;5038122;27;89613;-55
2022/10/15 13:11:43;;;;;;;;;;;20.40;75.80;;;;;;5021860;27;90274;-54
2022/10/15 13:14:11;;;;;;;;;;;20.40;75.60;;;;;;5030808;27;90917;-54
2022/10/15 13:16:41;;;;;;;;;;;20.50;75.20;;;;;;5030505;27;89940;-53
2022/10/15 13:19:15;;;;;;;;;;;20.40;74.70;;;;;;5037838;27;89435;-55
2022/10/15 13:21:47;;;;;;;;;;;20.40;74.10;;;;;;5031066;27;90009;-60
2022/10/15 13:24:15;;;;;;;;;;;20.30;73.80;;;;;;5044880;27;90219;-58
2022/10/15 13:26:40;;;;;;;;;;;20.40;74.00;;;;;;5039049;27;91606;-60
2022/10/15 13:29:13;;;;;;;;;;;20.30;73.90;;;;;;5054688;27;90599;-58
2022/10/15 13:31:39;;;;;;;;;;;20.30;74.20;;;;;;5046386;27;89796;-58
2022/10/15 13:34:12;;;;;;;;;;;20.30;75.60;;;;;;5033641;27;91381;-57
2022/10/15 13:36:38;;;;;;;;;;;20.30;73.50;;;;;;5042324;27;90685;-56
2022/10/15 13:39:22;;;;;;;;;;;20.40;73.60;;;;;;5041302;27;105947;-60
2022/10/15 13:41:48;;;;;;;;;;;20.30;71.00;;;;;;5035268;27;89893;-59
2022/10/15 13:44:23;;;;;;;;;;;20.20;73.20;;;;;;5046356;27;89449;-59
2022/10/15 13:46:49;;;;;;;;;;;20.10;74.50;;;;;;5043204;27;91096;-58
2022/10/15 13:49:14;;;;;;;;;;;20.00;72.80;;;;;;5040074;27;93831;-58
2022/10/15 13:51:41;;;;;;;;;;;19.90;71.60;;;;;;5041593;27;91627;-59
2022/10/15 13:54:09;;;;;;;;;;;19.90;74.40;;;;;;5039451;27;90075;-60
2022/10/15 13:56:34;;;;;;;;;;;19.80;74.50;;;;;;5038108;27;90689;-60
2022/10/15 13:59:01;;;;;;;;;;;19.70;76.80;;;;;;5035276;27;90216;-58
2022/10/15 14:01:27;;;;;;;;;;;19.80;78.40;;;;;;5041960;27;91570;-58
2022/10/15 14:03:57;;;;;;;;;;;19.70;75.50;;;;;;5048675;27;89826;-58
2022/10/15 14:06:22;;;;;;;;;;;19.70;75.20;;;;;;5031801;27;92106;-58
2022/10/15 14:08:52;;;;;;;;;;;19.70;76.00;;;;;;5019717;27;91065;-56
2022/10/15 14:11:18;;;;;;;;;;;19.60;79.60;;;;;;5038011;27;89523;-57
2022/10/15 14:13:44;;;;;;;;;;;19.60;73.80;;;;;;5047400;27;91267;-58
2022/10/15 14:16:10;;;;;;;;;;;19.60;77.70;;;;;;5041927;27;95864;-58
2022/10/15 14:18:37;;;;;;;;;;;19.50;77.90;;;;;;5032794;27;90150;-58
2022/10/15 14:21:09;;;;;;;;;;;19.60;77.60;;;;;;5041575;27;90015;-58
2022/10/15 14:23:34;;;;;;;;;;;19.60;72.10;;;;;;5043817;27;90308;-58
2022/10/15 14:26:01;;;;;;;;;;;19.50;76.70;;;;;;5024400;27;92398;-57